»·PEaware :: DAL691 KSNA-KSAN

DAL691 :: KSNA-KSAN

FLIGHT INFORMATION

Flight Status: Arrived
Operator:
Delta Air Lines
More flights by this operator :: More flights under this callsign
Pilot: Thomas N. (7419)
Aircraft: SAAB 340
(SF34)
More flights by this aircraft type
Origin: KSNA John Wayne-Orange Co
United States
Destination: KSAN San Diego Intl-Lindbergh
United States
More flights between these airports :: More routes between these airports
Route: V25 PACIF V208 LAX118 CARDI MZB320 MZB
File this flight plan on PilotEdge
Remarks:
Altitude:
(Current/Filed)
9,000ft
Speed:
(Current/Filed)
230kts
Departed: 04-Dec-15 07:03 PM
Arrived: 04-Dec-15 07:31 PM
Distance/Time
Traveled:
66nm/0:28
Distance/Time
To Go:
Arrived

Flight Plot

Page will automatically refresh every two minutes.


Map Options




Map Legend


Flown Route
Filed Route
Departure Airport
Arrival Airport
Navaid (VOR, NDB)
Fix

Horizontal Profiles

Position Reports

Time Latitude Longitude Heading Altitude Ground
Speed
04-Dec-15 18:45 33.682416 -117.860365 118 61ft 0kts
04-Dec-15 18:46 33.682416 -117.860365 118 61ft 0kts
04-Dec-15 18:47 33.682416 -117.860365 118 61ft 0kts
04-Dec-15 18:48 33.682416 -117.860365 118 61ft 0kts
04-Dec-15 18:49 33.682416 -117.860365 118 61ft 0kts
04-Dec-15 18:50 33.682416 -117.860365 118 61ft 0kts
04-Dec-15 18:51 33.682416 -117.860365 118 61ft 0kts
04-Dec-15 18:52 33.682416 -117.860365 118 61ft 0kts
04-Dec-15 18:53 33.682416 -117.860365 118 61ft 0kts
04-Dec-15 18:54 33.682416 -117.860365 118 61ft 0kts
04-Dec-15 18:55 33.682416 -117.860365 118 61ft 0kts
04-Dec-15 18:56 33.681536 -117.861803 210 61ft 3kts
04-Dec-15 18:57 33.679872 -117.862970 233 61ft 15kts
04-Dec-15 18:58 33.679958 -117.863584 301 61ft 0kts
04-Dec-15 18:59 33.680744 -117.865313 290 61ft 5kts
04-Dec-15 19:00 33.661367 -117.877435 196 229ft 151kts
04-Dec-15 19:01 33.617238 -117.885882 189 2173ft 161kts
04-Dec-15 19:02 33.572586 -117.894018 189 4044ft 166kts
04-Dec-15 19:03 33.526538 -117.902387 189 5688ft 170kts
04-Dec-15 19:04 33.479237 -117.910230 185 7132ft 174kts
04-Dec-15 19:05 33.433056 -117.900625 144 8370ft 177kts
04-Dec-15 19:06 33.392327 -117.859344 139 8867ft 214kts
04-Dec-15 19:07 33.345445 -117.810369 139 8861ft 228kts
04-Dec-15 19:08 33.297303 -117.760004 139 8860ft 231kts
04-Dec-15 19:09 33.275375 -117.691105 96 8860ft 231kts
04-Dec-15 19:10 33.265550 -117.614940 100 8820ft 232kts
04-Dec-15 19:11 33.239917 -117.547157 137 8823ft 231kts
04-Dec-15 19:12 33.194035 -117.493534 134 8819ft 231kts
04-Dec-15 19:13 33.149158 -117.437791 133 8750ft 233kts
04-Dec-15 19:14 33.095345 -117.398435 157 8807ft 230kts
04-Dec-15 19:15 33.046690 -117.372016 155 8810ft 231kts
04-Dec-15 19:16 32.988853 -117.339897 155 7928ft 218kts
04-Dec-15 19:17 32.927057 -117.305630 155 5164ft 207kts
04-Dec-15 19:18 32.887519 -117.283736 155 4822ft 197kts
04-Dec-15 19:19 32.833017 -117.253609 155 4812ft 225kts
04-Dec-15 19:20 32.788252 -117.207646 106 4469ft 231kts
04-Dec-15 19:21 32.774022 -117.138443 103 2934ft 220kts
04-Dec-15 19:22 32.762331 -117.079515 103 2802ft 166kts
04-Dec-15 19:23 32.750515 -117.023666 115 2811ft 188kts
04-Dec-15 19:24 32.705714 -117.027131 216 2804ft 184kts
04-Dec-15 19:25 32.707565 -117.084341 285 1988ft 179kts
04-Dec-15 19:26 32.720908 -117.136998 287 968ft 166kts
04-Dec-15 19:27 32.732150 -117.183873 286 24ft 130kts
04-Dec-15 19:28 32.732700 -117.192203 209 22ft 15kts
04-Dec-15 19:29 32.731632 -117.193524 258 22ft 0kts
04-Dec-15 19:30 32.731632 -117.193524 258 22ft 0kts
04-Dec-15 19:31 32.731632 -117.193524 258 22ft 0kts
04-Dec-15 19:32 32.731632 -117.193524 258 22ft 0kts
04-Dec-15 19:33 32.731632 -117.193524 258 22ft 0kts
04-Dec-15 19:34 32.731632 -117.193524 258 22ft 0kts
04-Dec-15 19:35 32.731632 -117.193524 258 22ft 0kts
04-Dec-15 19:36 32.731632 -117.193524 258 22ft 0kts

Navigation Log

Ident Type
Flight plan parsing failed, navigation log unavailable